createdAt,value
2018-02-14T00:00:42.554Z,-4.00
2018-02-14T00:03:10.128Z,-4.00
2018-02-14T00:05:37.870Z,-4.00
2018-02-14T00:08:05.345Z,-4.10
2018-02-14T00:10:32.932Z,-4.10
2018-02-14T00:13:00.528Z,-4.10
2018-02-14T00:15:28.063Z,-4.10
2018-02-14T00:17:55.607Z,-4.10
2018-02-14T00:20:23.559Z,-4.10
2018-02-14T00:22:51.125Z,-4.10
2018-02-14T00:25:18.663Z,-4.20
2018-02-14T00:27:46.210Z,-4.20
2018-02-14T00:30:13.740Z,-4.30
2018-02-14T00:32:41.271Z,-4.30
2018-02-14T00:35:08.890Z,-4.40
2018-02-14T00:37:36.476Z,-4.40
2018-02-14T00:40:04.008Z,-4.30
2018-02-14T00:42:31.622Z,-4.30
2018-02-14T00:44:59.188Z,-4.40
2018-02-14T00:47:27.524Z,-4.30
2018-02-14T00:49:55.120Z,-4.30
2018-02-14T00:52:22.665Z,-4.30
2018-02-14T00:54:50.236Z,-4.20
2018-02-14T00:57:18.593Z,-4.20
2018-02-14T00:59:46.924Z,-4.10
2018-02-14T01:02:14.496Z,-4.10
2018-02-14T01:04:42.816Z,-4.10
2018-02-14T01:07:10.318Z,-4.10
2018-02-14T01:09:38.606Z,-4.20
2018-02-14T01:12:06.419Z,-4.20
2018-02-14T01:14:33.963Z,-4.20
2018-02-14T01:17:01.585Z,-4.30
2018-02-14T01:19:36.282Z,-4.30
2018-02-14T01:22:03.814Z,-4.30
2018-02-14T01:24:31.346Z,-4.30
2018-02-14T01:26:58.941Z,-4.20
2018-02-14T01:29:27.242Z,-4.20
2018-02-14T01:31:54.775Z,-4.20
2018-02-14T01:34:22.339Z,-4.20
2018-02-14T01:36:49.912Z,-4.20
2018-02-14T01:39:17.486Z,-4.30
2018-02-14T01:41:45.093Z,-4.40
2018-02-14T01:44:12.667Z,-4.40
2018-02-14T01:46:40.978Z,-4.40
2018-02-14T01:49:08.717Z,-4.40
2018-02-14T01:51:36.276Z,-4.50
2018-02-14T01:54:03.753Z,-4.50
2018-02-14T01:56:31.437Z,-4.60
2018-02-14T01:58:59.008Z,-4.60
2018-02-14T02:01:26.580Z,-4.70
2018-02-14T02:03:54.548Z,-4.90
2018-02-14T02:06:22.860Z,-4.90
2018-02-14T02:08:50.402Z,-4.90
2018-02-14T02:11:17.967Z,-4.90
2018-02-14T02:13:45.507Z,-4.90
2018-02-14T02:16:13.830Z,-4.80
2018-02-14T02:18:41.423Z,-4.80
2018-02-14T02:21:09.022Z,-4.70
2018-02-14T02:23:36.609Z,-4.70
2018-02-14T02:26:04.191Z,-4.70
2018-02-14T02:28:32.525Z,-4.70
2018-02-14T02:31:00.093Z,-4.80
2018-02-14T02:33:28.615Z,-4.60
2018-02-14T02:35:56.159Z,-4.70
2018-02-14T02:38:23.733Z,-4.60
2018-02-14T02:40:52.308Z,-4.50
2018-02-14T02:43:20.648Z,-4.70
2018-02-14T02:45:48.187Z,-4.70
2018-02-14T02:48:15.887Z,-4.70
2018-02-14T02:50:43.422Z,-4.70
2018-02-14T02:53:10.994Z,-4.80
2018-02-14T02:55:38.797Z,-4.80
2018-02-14T02:58:07.108Z,-5.00
2018-02-14T03:00:34.797Z,-5.00
2018-02-14T03:03:03.218Z,-5.10
2018-02-14T03:05:30.786Z,-5.10
2018-02-14T03:07:58.336Z,-5.20
2018-02-14T03:10:25.902Z,-5.30
2018-02-14T03:12:54.245Z,-5.30
2018-02-14T03:15:21.794Z,-5.30
2018-02-14T03:17:49.403Z,-5.40
2018-02-14T03:20:16.943Z,-5.40
2018-02-14T03:22:44.666Z,-5.30
2018-02-14T03:25:12.353Z,-5.40
2018-02-14T03:27:39.934Z,-5.40
2018-02-14T03:30:08.261Z,-5.30
2018-02-14T03:32:35.872Z,-5.40
2018-02-14T03:35:03.440Z,-5.50
2018-02-14T03:37:30.977Z,-5.40
2018-02-14T03:39:58.748Z,-5.40
2018-02-14T03:42:26.286Z,-5.30
2018-02-14T03:44:53.862Z,-5.30
2018-02-14T03:47:22.279Z,-5.30
2018-02-14T03:49:49.819Z,-5.30
2018-02-14T03:52:17.391Z,-5.30
2018-02-14T03:54:45.176Z,-5.30
2018-02-14T03:57:13.523Z,-5.30
2018-02-14T03:59:41.877Z,-5.30
2018-02-14T04:02:09.545Z,-5.30
2018-02-14T04:04:37.894Z,-5.20
2018-02-14T04:07:06.236Z,-5.00
2018-02-14T04:09:33.802Z,-5.00
2018-02-14T04:12:02.099Z,-4.80
2018-02-14T04:14:29.642Z,-4.80
2018-02-14T04:16:57.668Z,-4.70
2018-02-14T04:19:26.006Z,-4.60
2018-02-14T04:21:53.547Z,-4.70
2018-02-14T04:24:21.240Z,-4.60
2018-02-14T04:26:48.717Z,-4.50
2018-02-14T04:29:16.293Z,-4.50
2018-02-14T04:31:43.899Z,-4.50
2018-02-14T04:34:12.182Z,-4.40
2018-02-14T04:36:39.742Z,-4.40
2018-02-14T04:39:08.204Z,-4.60
2018-02-14T04:41:35.747Z,-4.60
2018-02-14T04:44:03.280Z,-4.70
2018-02-14T04:46:31.223Z,-4.70
2018-02-14T04:48:58.796Z,-4.60
2018-02-14T04:51:27.105Z,-4.50
2018-02-14T04:53:54.984Z,-4.50
2018-02-14T04:56:22.568Z,-4.40
2018-02-14T04:58:50.111Z,-4.40
2018-02-14T05:01:17.752Z,-4.30
2018-02-14T05:03:46.093Z,-4.50
2018-02-14T05:06:13.639Z,-4.60
2018-02-14T05:08:41.412Z,-4.60
2018-02-14T05:11:08.955Z,-4.60
2018-02-14T05:13:36.528Z,-4.50
2018-02-14T05:16:04.104Z,-4.40
2018-02-14T05:18:31.690Z,-4.50
2018-02-14T05:20:59.243Z,-4.50
2018-02-14T05:23:27.080Z,-4.50
2018-02-14T05:25:54.672Z,-4.50
2018-02-14T05:28:22.247Z,-4.50
2018-02-14T05:30:49.812Z,-4.40
2018-02-14T05:33:18.164Z,-4.30
2018-02-14T05:35:46.512Z,-4.40
2018-02-14T05:38:14.218Z,-4.50
2018-02-14T05:40:41.755Z,-4.50
2018-02-14T05:43:09.340Z,-4.50
2018-02-14T05:45:36.948Z,-4.50
2018-02-14T05:48:04.536Z,-4.60
2018-02-14T05:50:32.104Z,-4.70
2018-02-14T05:53:00.715Z,-4.70
2018-02-14T05:55:28.284Z,-4.80
2018-02-14T05:57:55.860Z,-4.80
2018-02-14T06:00:23.518Z,-4.80
2018-02-14T06:02:51.096Z,-4.80
2018-02-14T06:05:18.884Z,-4.80
2018-02-14T06:07:47.276Z,-4.80
2018-02-14T06:10:14.847Z,-4.80
2018-02-14T06:12:42.416Z,-4.70
2018-02-14T06:15:10.196Z,-4.10
2018-02-14T06:17:38.542Z,-4.60
2018-02-14T06:20:06.056Z,-4.60
2018-02-14T06:22:33.624Z,-4.50
2018-02-14T06:25:01.179Z,-4.40
2018-02-14T06:27:28.722Z,-4.40
2018-02-14T06:29:57.055Z,-4.30
2018-02-14T06:32:24.640Z,-4.40
2018-02-14T06:34:52.950Z,-4.30
2018-02-14T06:37:20.744Z,-4.30
2018-02-14T06:39:49.072Z,-4.30
2018-02-14T06:42:16.615Z,-4.30
2018-02-14T06:44:44.325Z,-4.30
2018-02-14T06:47:11.880Z,-4.30
2018-02-14T06:49:39.468Z,-4.40
2018-02-14T06:52:07.319Z,-4.50
2018-02-14T06:54:34.835Z,-4.40
2018-02-14T06:57:02.402Z,-4.50
2018-02-14T06:59:30.022Z,-4.40
2018-02-14T07:01:57.597Z,-4.40
2018-02-14T07:04:25.127Z,-4.40
2018-02-14T07:06:52.695Z,-4.40
2018-02-14T07:09:21.012Z,-4.20
2018-02-14T07:11:48.585Z,-4.30
2018-02-14T07:14:16.188Z,-4.20
2018-02-14T07:16:43.775Z,-4.20
2018-02-14T07:19:11.352Z,-4.10
2018-02-14T07:21:39.666Z,-4.10
2018-02-14T07:24:07.203Z,-4.00
2018-02-14T07:26:34.791Z,-4.00
2018-02-14T07:29:03.146Z,-3.80
2018-02-14T07:31:31.488Z,-3.70
2018-02-14T07:33:59.036Z,-3.70
2018-02-14T07:36:26.960Z,-3.70
2018-02-14T07:38:54.524Z,-3.60
2018-02-14T07:41:22.101Z,-3.60
2018-02-14T07:43:50.443Z,-3.60
2018-02-14T07:46:17.987Z,-3.60
2018-02-14T07:48:45.467Z,-3.50
2018-02-14T07:51:13.300Z,-3.50
2018-02-14T07:53:41.628Z,-3.70
2018-02-14T07:56:09.200Z,-3.70
2018-02-14T07:58:37.738Z,-3.40
2018-02-14T08:01:06.085Z,-3.40
2018-02-14T08:03:33.628Z,-3.40
2018-02-14T08:06:01.289Z,-3.40
2018-02-14T08:08:28.835Z,-3.30
2018-02-14T08:10:56.379Z,-3.10
2018-02-14T08:13:23.959Z,-3.10
2018-02-14T08:15:52.283Z,-3.10
2018-02-14T08:18:19.867Z,-3.20
2018-02-14T08:20:48.287Z,-2.80
2018-02-14T08:23:15.917Z,-2.80
2018-02-14T08:25:43.492Z,-2.70
2018-02-14T08:28:11.343Z,-2.60
2018-02-14T08:30:38.933Z,-2.60
2018-02-14T08:33:06.471Z,-2.40
2018-02-14T08:35:34.175Z,-2.50
2018-02-14T08:38:01.745Z,-2.50
2018-02-14T08:40:30.055Z,-2.40
2018-02-14T08:42:58.329Z,-2.40
2018-02-14T08:45:25.901Z,-2.40
2018-02-14T08:47:54.208Z,-2.30
2018-02-14T08:50:21.804Z,-2.40
2018-02-14T08:52:49.342Z,-2.40
2018-02-14T08:55:16.875Z,-2.50
2018-02-14T08:57:44.852Z,-2.60
2018-02-14T09:00:13.210Z,-2.50
2018-02-14T09:02:40.690Z,-2.50
2018-02-14T09:05:08.508Z,-2.50
2018-02-14T09:07:36.850Z,-2.20
2018-02-14T09:10:04.389Z,-2.20
2018-02-14T09:12:31.966Z,-2.10
2018-02-14T09:15:00.260Z,-2.00
2018-02-14T09:17:27.812Z,-2.00
2018-02-14T09:19:55.438Z,-1.90
2018-02-14T09:22:23.013Z,-1.70
2018-02-14T09:24:50.588Z,-1.60
2018-02-14T09:27:18.956Z,-1.40
2018-02-14T09:29:47.259Z,-1.20
2018-02-14T09:32:14.839Z,-1.30
2018-02-14T09:34:42.445Z,-1.20
2018-02-14T09:37:10.036Z,-1.10
2018-02-14T09:39:37.612Z,-1.00
2018-02-14T09:42:05.948Z,-0.90
2018-02-14T09:44:33.486Z,-0.90
2018-02-14T09:47:01.035Z,-0.80
2018-02-14T09:49:28.581Z,-0.70
2018-02-14T09:51:56.049Z,-0.60
2018-02-14T09:54:24.426Z,-0.50
2018-02-14T09:56:52.153Z,-0.50
2018-02-14T09:59:20.483Z,-0.30
2018-02-14T10:01:48.056Z,-0.40
2018-02-14T10:04:15.896Z,-0.20
2018-02-14T10:06:43.483Z,-0.20
2018-02-14T10:09:11.047Z,-0.10
2018-02-14T10:11:38.627Z,0.00
2018-02-14T10:14:06.953Z,0.00
2018-02-14T10:16:34.524Z,0.00
2018-02-14T10:19:02.242Z,0.10
2018-02-14T10:21:29.754Z,0.10
2018-02-14T10:23:57.316Z,0.10
2018-02-14T10:26:24.886Z,0.10
2018-02-14T10:28:52.461Z,0.00
2018-02-14T10:31:20.800Z,0.00
2018-02-14T10:33:48.367Z,0.00
2018-02-14T10:36:16.710Z,0.00
2018-02-14T10:38:44.258Z,0.00
2018-02-14T10:41:11.903Z,0.00
2018-02-14T10:43:39.471Z,0.10
2018-02-14T10:46:07.776Z,0.10
2018-02-14T10:48:35.423Z,0.10
2018-02-14T10:51:03.779Z,0.20
2018-02-14T10:53:31.311Z,0.20
2018-02-14T10:55:58.909Z,0.30
2018-02-14T10:58:26.484Z,0.30
2018-02-14T11:00:59.659Z,0.30
2018-02-14T11:03:32.838Z,0.40
2018-02-14T11:06:06.015Z,0.50
2018-02-14T11:08:33.690Z,0.50
2018-02-14T11:11:01.229Z,0.50
2018-02-14T11:13:28.801Z,0.70
2018-02-14T11:15:56.692Z,0.80
2018-02-14T11:18:24.273Z,0.80
2018-02-14T11:20:51.845Z,0.80
2018-02-14T11:23:19.491Z,0.90
2018-02-14T11:25:47.039Z,0.90
2018-02-14T11:28:14.612Z,1.00
2018-02-14T11:30:42.279Z,1.00
2018-02-14T11:33:09.857Z,1.10
2018-02-14T11:35:37.358Z,1.20
2018-02-14T11:38:04.853Z,1.30
2018-02-14T11:40:32.444Z,1.30
2018-02-14T11:42:59.979Z,1.40
2018-02-14T11:45:27.883Z,1.50
2018-02-14T11:47:55.410Z,1.60
2018-02-14T11:50:22.985Z,1.70
2018-02-14T11:52:50.728Z,1.70
2018-02-14T11:55:18.260Z,1.60
2018-02-14T11:57:46.594Z,1.70
2018-02-14T12:00:14.346Z,1.70
2018-02-14T12:02:41.867Z,1.80
2018-02-14T12:05:09.432Z,1.90
2018-02-14T12:07:37.208Z,1.90
2018-02-14T12:10:04.755Z,2.00
2018-02-14T12:12:32.279Z,2.20
2018-02-14T12:15:00.051Z,2.30
2018-02-14T12:17:27.590Z,2.40
2018-02-14T12:19:55.161Z,2.50
2018-02-14T12:22:23.521Z,2.50
2018-02-14T12:24:51.860Z,2.70
2018-02-14T12:27:19.395Z,2.70
2018-02-14T12:29:46.996Z,2.80
2018-02-14T12:32:14.748Z,2.90
2018-02-14T12:34:42.298Z,3.00
2018-02-14T12:37:10.088Z,3.00
2018-02-14T12:39:37.668Z,2.90
2018-02-14T12:42:05.966Z,3.00
2018-02-14T12:44:33.843Z,3.00
2018-02-14T12:47:01.420Z,3.20
2018-02-14T12:49:28.967Z,3.30
2018-02-14T12:51:57.296Z,4.40
2018-02-14T12:54:24.834Z,4.20
2018-02-14T12:56:52.401Z,4.40
2018-02-14T12:59:20.774Z,4.70
2018-02-14T13:01:49.118Z,4.80
2018-02-14T13:04:16.593Z,4.70
2018-02-14T13:06:44.343Z,4.60
2018-02-14T13:09:11.856Z,4.30
2018-02-14T13:11:39.391Z,3.90
2018-02-14T13:14:06.996Z,3.60
2018-02-14T13:16:34.564Z,3.40
2018-02-14T13:19:02.107Z,3.20
2018-02-14T13:21:29.679Z,3.00
2018-02-14T13:23:58.024Z,2.70
2018-02-14T13:26:25.567Z,2.70
2018-02-14T13:28:53.176Z,2.70
2018-02-14T13:31:20.720Z,2.60
2018-02-14T13:33:48.301Z,2.60
2018-02-14T13:36:15.859Z,2.60
2018-02-14T13:38:43.433Z,2.50
2018-02-14T13:41:10.971Z,2.50
2018-02-14T13:43:38.580Z,2.60
2018-02-14T13:46:06.114Z,2.60
2018-02-14T13:48:34.419Z,2.70
2018-02-14T13:51:02.022Z,2.70
2018-02-14T13:53:30.358Z,2.70
2018-02-14T13:55:57.891Z,2.70
2018-02-14T13:58:25.576Z,2.70
2018-02-14T14:00:53.916Z,2.80
2018-02-14T14:03:21.467Z,2.80
2018-02-14T14:05:49.925Z,2.80
2018-02-14T14:08:17.452Z,2.80
2018-02-14T14:10:45.025Z,2.90
2018-02-14T14:13:13.404Z,3.00
2018-02-14T14:15:40.966Z,2.90
2018-02-14T14:18:08.507Z,3.00
2018-02-14T14:20:36.083Z,3.10
2018-02-14T14:23:03.649Z,3.10
2018-02-14T14:25:31.180Z,3.20
2018-02-14T14:27:58.755Z,3.20
2018-02-14T14:30:26.315Z,3.20
2018-02-14T14:32:53.848Z,3.20
2018-02-14T14:35:22.171Z,3.40
2018-02-14T14:37:49.696Z,3.40
2018-02-14T14:40:17.211Z,3.50
2018-02-14T14:42:45.149Z,3.50
2018-02-14T14:45:13.484Z,3.60
2018-02-14T14:47:40.990Z,3.60
2018-02-14T14:50:08.676Z,3.70
2018-02-14T14:52:36.160Z,3.90
2018-02-14T14:55:03.696Z,4.10
2018-02-14T14:57:31.268Z,4.00
2018-02-14T14:59:58.798Z,4.20
2018-02-14T15:02:26.340Z,4.40
2018-02-14T15:04:53.995Z,4.40
2018-02-14T15:07:21.576Z,4.40
2018-02-14T15:09:49.374Z,4.40
2018-02-14T15:12:16.910Z,4.40
2018-02-14T15:14:45.203Z,4.60
2018-02-14T15:17:12.778Z,4.60
2018-02-14T15:19:40.380Z,5.10
2018-02-14T15:22:08.812Z,5.70
2018-02-14T15:24:36.343Z,5.80
2018-02-14T15:27:04.237Z,6.00
2018-02-14T15:29:32.571Z,6.00
2018-02-14T15:32:00.107Z,6.00
2018-02-14T15:34:28.075Z,6.00
2018-02-14T15:36:56.420Z,7.20
2018-02-14T15:39:24.068Z,7.10
2018-02-14T15:41:51.696Z,7.40
2018-02-14T15:44:19.267Z,7.20
2018-02-14T15:46:46.849Z,7.10
2018-02-14T15:49:14.504Z,7.20
2018-02-14T15:51:42.035Z,7.40
2018-02-14T15:54:09.641Z,7.40
2018-02-14T15:56:37.250Z,7.30
2018-02-14T15:59:04.855Z,7.30
2018-02-14T16:01:32.429Z,7.50
2018-02-14T16:04:00.009Z,7.20
2018-02-14T16:06:27.547Z,7.10
2018-02-14T16:08:55.321Z,7.10
2018-02-14T16:11:22.887Z,6.70
2018-02-14T16:13:51.198Z,6.60
2018-02-14T16:16:18.735Z,6.50
2018-02-14T16:18:46.415Z,6.30
2018-02-14T16:21:13.990Z,6.00
2018-02-14T16:23:42.300Z,5.20
2018-02-14T16:26:09.870Z,5.20
2018-02-14T16:28:37.404Z,4.90
2018-02-14T16:31:04.938Z,4.50
2018-02-14T16:33:32.514Z,4.00
2018-02-14T16:36:00.828Z,3.30
2018-02-14T16:38:28.379Z,3.20
2018-02-14T16:40:55.989Z,2.90
2018-02-14T16:43:23.574Z,2.60
2018-02-14T16:45:51.912Z,2.20
2018-02-14T16:48:19.512Z,2.20
2018-02-14T16:50:46.990Z,2.00
2018-02-14T16:53:15.321Z,1.70
2018-02-14T16:55:42.903Z,1.70
2018-02-14T16:58:10.443Z,1.60
2018-02-14T17:00:37.971Z,1.40
2018-02-14T17:03:05.532Z,1.40
2018-02-14T17:05:33.115Z,1.30
2018-02-14T17:08:00.716Z,1.20
2018-02-14T17:10:28.321Z,1.20
2018-02-14T17:12:55.892Z,1.10
2018-02-14T17:15:23.440Z,1.00
2018-02-14T17:17:51.007Z,1.00
2018-02-14T17:20:19.343Z,0.80
2018-02-14T17:22:46.893Z,0.80
2018-02-14T17:25:14.547Z,0.80
2018-02-14T17:27:42.092Z,0.70
2018-02-14T17:30:10.440Z,0.60
2018-02-14T17:32:38.425Z,0.60
2018-02-14T17:35:05.975Z,0.60
2018-02-14T17:37:33.511Z,0.50
2018-02-14T17:40:02.039Z,0.40
2018-02-14T17:42:29.579Z,0.40
2018-02-14T17:44:57.111Z,0.40
2018-02-14T17:47:24.867Z,0.40
2018-02-14T17:49:52.399Z,0.40
2018-02-14T17:52:19.969Z,0.30
2018-02-14T17:54:47.485Z,0.30
2018-02-14T17:57:14.990Z,0.30
2018-02-14T17:59:43.292Z,0.20
2018-02-14T18:02:10.887Z,0.20
2018-02-14T18:04:39.228Z,0.20
2018-02-14T18:07:06.800Z,0.20
2018-02-14T18:09:35.456Z,0.10
2018-02-14T18:12:03.804Z,0.10
2018-02-14T18:14:31.385Z,0.10
2018-02-14T18:16:59.021Z,0.10
2018-02-14T18:19:26.608Z,0.00
2018-02-14T18:21:54.156Z,0.00
2018-02-14T18:24:21.816Z,0.00
2018-02-14T18:26:49.360Z,0.00
2018-02-14T18:29:16.931Z,0.00
2018-02-14T18:31:45.412Z,-0.10
2018-02-14T18:34:12.998Z,-0.10
2018-02-14T18:36:40.539Z,-0.10
2018-02-14T18:39:08.109Z,0.00
2018-02-14T18:41:35.680Z,0.00
2018-02-14T18:44:03.992Z,-0.10
2018-02-14T18:46:31.620Z,-0.10
2018-02-14T18:48:59.217Z,-0.10
2018-02-14T18:51:27.510Z,-0.20
2018-02-14T18:53:55.164Z,-0.10
2018-02-14T18:56:22.745Z,-0.20
2018-02-14T18:58:50.430Z,-0.20
2018-02-14T19:01:18.339Z,-0.20
2018-02-14T19:03:45.887Z,-0.20
2018-02-14T19:06:14.142Z,-0.20
2018-02-14T19:08:42.040Z,-0.20
2018-02-14T19:11:10.386Z,-0.20
2018-02-14T19:13:38.697Z,-0.30
2018-02-14T19:16:06.352Z,-0.30
2018-02-14T19:18:33.857Z,-0.30
2018-02-14T19:21:02.159Z,-0.50
2018-02-14T19:23:29.861Z,-0.50
2018-02-14T19:25:57.407Z,-0.60
2018-02-14T19:28:24.997Z,-0.60
2018-02-14T19:30:52.568Z,-0.70
2018-02-14T19:33:20.146Z,-0.80
2018-02-14T19:35:47.629Z,-0.80
2018-02-14T19:38:15.316Z,-0.90
2018-02-14T19:40:43.760Z,-0.90
2018-02-14T19:43:11.296Z,-0.90
2018-02-14T19:45:39.248Z,-1.00
2018-02-14T19:48:06.732Z,-1.00
2018-02-14T19:50:35.072Z,-1.00
2018-02-14T19:53:02.643Z,-1.00
2018-02-14T19:55:30.225Z,-1.10
2018-02-14T19:57:57.806Z,-1.10
2018-02-14T20:00:26.392Z,-1.10
2018-02-14T20:02:54.736Z,-1.20
2018-02-14T20:05:22.210Z,-1.20
2018-02-14T20:07:49.805Z,-1.20
2018-02-14T20:10:17.384Z,-1.20
2018-02-14T20:12:45.728Z,-1.10
2018-02-14T20:15:13.339Z,-1.20
2018-02-14T20:17:40.916Z,-1.10
2018-02-14T20:20:08.457Z,-1.20
2018-02-14T20:22:36.060Z,-1.20
2018-02-14T20:25:03.615Z,-1.30
2018-02-14T20:27:31.159Z,-1.30
2018-02-14T20:29:58.957Z,-1.30
2018-02-14T20:32:27.287Z,-1.30
2018-02-14T20:34:54.868Z,-1.30
2018-02-14T20:37:22.451Z,-1.30
2018-02-14T20:39:49.999Z,-1.30
2018-02-14T20:42:17.552Z,-1.30
2018-02-14T20:44:45.167Z,-1.30
2018-02-14T20:47:12.768Z,-1.30
2018-02-14T20:49:40.246Z,-1.30
2018-02-14T20:52:08.099Z,-1.20
2018-02-14T20:54:35.619Z,-1.20
2018-02-14T20:57:03.987Z,-1.20
2018-02-14T20:59:32.519Z,-1.20
2018-02-14T21:02:00.096Z,-1.20
2018-02-14T21:04:28.405Z,-1.10
2018-02-14T21:06:56.053Z,-1.20
2018-02-14T21:09:23.604Z,-1.20
2018-02-14T21:11:51.147Z,-1.20
2018-02-14T21:14:18.909Z,-1.20
2018-02-14T21:16:46.500Z,-1.30
2018-02-14T21:19:14.077Z,-1.20
2018-02-14T21:21:42.435Z,-1.30
2018-02-14T21:24:09.960Z,-1.30
2018-02-14T21:26:38.238Z,-1.30
2018-02-14T21:29:06.047Z,-1.30
2018-02-14T21:31:34.392Z,-1.30
2018-02-14T21:34:01.935Z,-1.40
2018-02-14T21:36:30.272Z,-1.40
2018-02-14T21:38:57.857Z,-1.40
2018-02-14T21:41:26.200Z,-1.40
2018-02-14T21:43:53.779Z,-1.40
2018-02-14T21:46:21.257Z,-1.40
2018-02-14T21:48:48.778Z,-1.40
2018-02-14T21:51:16.464Z,-1.40
2018-02-14T21:53:44.004Z,-1.40
2018-02-14T21:56:11.588Z,-1.40
2018-02-14T21:58:39.166Z,-1.40
2018-02-14T22:01:06.704Z,-1.40
2018-02-14T22:03:34.252Z,-1.50
2018-02-14T22:06:02.108Z,-1.50
2018-02-14T22:08:29.652Z,-1.60
2018-02-14T22:10:57.218Z,-1.60
2018-02-14T22:13:24.906Z,-1.70
2018-02-14T22:15:53.211Z,-1.70
2018-02-14T22:18:20.800Z,-1.70
2018-02-14T22:20:49.150Z,-1.60
2018-02-14T22:23:16.687Z,-1.70
2018-02-14T22:25:44.269Z,-1.60
2018-02-14T22:28:11.880Z,-1.60
2018-02-14T22:30:39.423Z,-1.70
2018-02-14T22:33:07.004Z,-1.80
2018-02-14T22:35:34.832Z,-1.90
2018-02-14T22:38:02.387Z,-1.90
2018-02-14T22:40:29.965Z,-2.00
2018-02-14T22:42:57.514Z,-2.20
2018-02-14T22:45:25.336Z,-2.30
2018-02-14T22:47:52.922Z,-2.30
2018-02-14T22:50:20.525Z,-2.30
2018-02-14T22:52:48.067Z,-2.30
2018-02-14T22:55:15.647Z,-2.30
2018-02-14T22:57:43.323Z,-2.40
2018-02-14T23:00:10.854Z,-2.50
2018-02-14T23:02:38.379Z,-2.40
2018-02-14T23:05:06.831Z,-2.30
2018-02-14T23:07:34.382Z,-2.40
2018-02-14T23:10:01.961Z,-2.30
2018-02-14T23:12:29.667Z,-2.30
2018-02-14T23:14:57.202Z,-2.30
2018-02-14T23:17:24.785Z,-2.30
2018-02-14T23:19:52.383Z,-2.20
2018-02-14T23:22:19.963Z,-2.20
2018-02-14T23:24:47.553Z,-2.10
2018-02-14T23:27:16.080Z,-2.10
2018-02-14T23:29:43.623Z,-2.10
2018-02-14T23:32:11.180Z,-2.00
2018-02-14T23:34:38.957Z,-2.00
2018-02-14T23:37:07.258Z,-2.10
2018-02-14T23:39:34.832Z,-2.10
2018-02-14T23:42:02.487Z,-2.10
2018-02-14T23:44:30.027Z,-2.10
2018-02-14T23:46:57.621Z,-2.00
2018-02-14T23:49:26.240Z,-2.00
2018-02-14T23:51:53.717Z,-2.00
2018-02-14T23:54:21.299Z,-2.00
2018-02-14T23:56:49.093Z,-2.00
2018-02-14T23:59:17.430Z,-1.90
